Time;durP1;ratioP1;P1;durP2;ratioP2;P2;SDS_P1;SDS_P2;PMS_P1;PMS_P2;Temp;Humidity;BMP_temperature;BMP_pressure;BME280_temperature;BME280_humidity;BME280_pressure;Samples;Min_cycle;Max_cycle;Signal;HPM_P1;HPM_P2
2023/08/10 00:00:12;;;;;;;4.85;2.30;;;12.90;99.90;;;;;;5034080;28;20122;-53
2023/08/10 00:02:39;;;;;;;3.17;1.48;;;13.00;99.90;;;;;;5033865;28;20091;-52
2023/08/10 00:05:05;;;;;;;3.47;1.30;;;13.00;99.90;;;;;;5033956;28;20036;-50
2023/08/10 00:07:31;;;;;;;3.70;1.63;;;13.00;99.90;;;;;;5033922;28;20080;-50
2023/08/10 00:09:57;;;;;;;5.97;1.75;;;13.10;99.90;;;;;;5034294;28;20452;-53
2023/08/10 00:12:23;;;;;;;4.57;1.58;;;13.10;99.90;;;;;;5033770;28;20105;-56
2023/08/10 00:14:49;;;;;;;3.42;1.48;;;13.10;99.90;;;;;;5033958;28;20095;-50
2023/08/10 00:17:16;;;;;;;4.18;1.60;;;13.10;99.90;;;;;;5033817;28;20504;-53
2023/08/10 00:19:42;;;;;;;3.53;1.40;;;13.10;99.90;;;;;;5034118;28;20061;-53
2023/08/10 00:22:08;;;;;;;5.97;1.65;;;13.10;99.90;;;;;;5033809;28;20061;-53
2023/08/10 00:24:33;;;;;;;3.58;1.40;;;13.10;99.90;;;;;;5033733;28;20064;-49
2023/08/10 00:26:59;;;;;;;8.95;2.05;;;13.10;99.90;;;;;;5033638;28;20034;-50
2023/08/10 00:29:24;;;;;;;4.72;1.55;;;13.10;99.90;;;;;;5015950;28;20037;-51
2023/08/10 00:31:51;;;;;;;4.30;1.80;;;13.10;99.90;;;;;;5015507;28;20116;-53
2023/08/10 00:34:17;;;;;;;3.42;1.73;;;13.20;99.90;;;;;;5033265;28;20108;-49
2023/08/10 00:36:42;;;;;;;3.20;1.58;;;13.20;99.90;;;;;;5015436;28;20041;-49
2023/08/10 00:39:08;;;;;;;7.35;1.70;;;13.20;99.90;;;;;;5015645;28;20056;-50
2023/08/10 00:41:34;;;;;;;6.95;1.90;;;13.20;99.90;;;;;;5034388;28;20037;-50
2023/08/10 00:43:59;;;;;;;4.90;1.75;;;13.20;99.90;;;;;;5015413;28;20044;-52
2023/08/10 00:46:26;;;;;;;8.73;2.08;;;13.20;99.90;;;;;;5015293;28;20180;-49
2023/08/10 00:48:52;;;;;;;5.97;1.90;;;13.20;99.90;;;;;;5015338;28;20036;-51
2023/08/10 00:51:18;;;;;;;3.75;1.30;;;13.20;99.90;;;;;;5015182;28;20029;-52
2023/08/10 00:53:44;;;;;;;6.47;2.08;;;13.20;99.90;;;;;;5015072;28;20029;-53
2023/08/10 00:56:11;;;;;;;5.00;1.67;;;13.20;99.90;;;;;;5014932;28;20609;-49
2023/08/10 00:58:37;;;;;;;5.60;1.50;;;13.20;99.90;;;;;;5014860;28;20030;-49
2023/08/10 01:01:04;;;;;;;4.60;1.85;;;13.20;99.90;;;;;;5014377;28;20030;-50
2023/08/10 01:03:30;;;;;;;3.92;1.83;;;13.30;99.90;;;;;;5033011;28;20370;-50
2023/08/10 01:06:09;;;;;;;4.75;1.90;;;13.30;99.90;;;;;;5032985;28;20380;-50
2023/08/10 01:09:16;;;;;;;5.65;1.67;;;13.40;99.90;;;;;;5014921;28;20070;-52
2023/08/10 01:11:48;;;;;;;4.22;1.50;;;13.30;99.90;;;;;;5032615;28;20045;-50
2023/08/10 01:14:32;;;;;;;3.28;1.60;;;13.20;99.90;;;;;;5032673;28;20432;-53
2023/08/10 01:17:00;;;;;;;5.07;1.58;;;13.20;99.90;;;;;;5032516;28;20037;-52
2023/08/10 01:19:35;;;;;;;6.72;1.88;;;13.20;99.90;;;;;;5014642;28;20124;-50
2023/08/10 01:22:28;;;;;;;4.88;1.70;;;13.20;99.90;;;;;;5032208;28;20026;-49
2023/08/10 01:25:06;;;;;;;4.35;1.70;;;13.20;99.90;;;;;;5032426;28;20030;-49
2023/08/10 01:27:33;;;;;;;6.07;1.50;;;13.30;99.90;;;;;;5014564;28;20442;-51
2023/08/10 01:30:00;;;;;;;4.40;1.95;;;13.30;99.90;;;;;;5014347;28;20053;-50
2023/08/10 01:32:30;;;;;;;4.50;1.70;;;13.30;99.90;;;;;;5032105;28;20095;-53
2023/08/10 01:35:06;;;;;;;5.85;1.90;;;13.30;99.90;;;;;;5014353;28;20502;-49
2023/08/10 01:37:35;;;;;;;5.68;1.55;;;13.30;99.90;;;;;;5031876;28;20040;-51
2023/08/10 01:40:03;;;;;;;3.47;1.55;;;13.30;99.90;;;;;;5014252;28;20037;-50
2023/08/10 01:42:29;;;;;;;3.35;1.63;;;13.30;99.90;;;;;;5031805;28;20112;-52
2023/08/10 01:44:54;;;;;;;4.18;1.70;;;13.30;99.90;;;;;;5014130;28;20121;-50
2023/08/10 01:47:27;;;;;;;3.88;1.50;;;13.30;99.90;;;;;;5014023;28;20033;-49
2023/08/10 01:49:56;;;;;;;5.50;1.90;;;13.30;99.90;;;;;;5014318;28;20478;-49
2023/08/10 01:52:34;;;;;;;4.78;1.42;;;13.30;99.90;;;;;;5031740;28;20070;-53
2023/08/10 01:55:02;;;;;;;4.72;1.63;;;13.30;99.90;;;;;;5014148;28;20026;-52
2023/08/10 01:57:29;;;;;;;3.67;1.50;;;13.30;99.90;;;;;;5013772;28;20030;-49
2023/08/10 01:59:56;;;;;;;5.35;1.90;;;13.30;99.90;;;;;;5013900;28;20540;-52
2023/08/10 02:02:21;;;;;;;4.50;1.48;;;13.40;99.90;;;;;;5013585;28;20087;-50
2023/08/10 02:04:47;;;;;;;3.63;2.05;;;13.40;99.90;;;;;;5031613;28;20021;-50
2023/08/10 02:07:12;;;;;;;5.40;2.05;;;13.40;99.90;;;;;;5013459;28;20043;-49
2023/08/10 02:09:40;;;;;;;4.05;1.63;;;13.40;99.90;;;;;;5031460;28;20041;-51
2023/08/10 02:12:06;;;;;;;5.72;1.73;;;13.40;99.90;;;;;;5013353;28;20041;-52
2023/08/10 02:14:31;;;;;;;5.35;2.10;;;13.50;99.90;;;;;;5031503;28;20033;-49
2023/08/10 02:16:57;;;;;;;5.95;2.00;;;13.50;99.90;;;;;;5013537;28;20559;-50
2023/08/10 02:19:23;;;;;;;6.10;1.67;;;13.50;99.90;;;;;;5031308;28;20087;-49
2023/08/10 02:21:49;;;;;;;5.70;1.80;;;13.40;99.90;;;;;;5031249;28;20037;-49
2023/08/10 02:24:15;;;;;;;3.80;1.63;;;13.40;99.90;;;;;;5031216;28;20030;-49
2023/08/10 02:26:41;;;;;;;3.75;1.73;;;13.40;99.90;;;;;;5031174;28;20565;-53
2023/08/10 02:29:07;;;;;;;5.40;1.55;;;13.40;99.90;;;;;;5013306;28;20040;-53
2023/08/10 02:31:32;;;;;;;5.95;2.42;;;13.40;99.90;;;;;;5030956;28;20030;-48
2023/08/10 02:33:58;;;;;;;7.78;2.05;;;13.50;99.90;;;;;;5031022;28;20072;-53
2023/08/10 02:36:24;;;;;;;5.90;1.92;;;13.50;99.90;;;;;;5030727;28;20029;-51
2023/08/10 02:38:49;;;;;;;3.58;1.80;;;13.50;99.90;;;;;;5031081;28;20402;-54
2023/08/10 02:41:15;;;;;;;3.58;1.60;;;13.50;99.90;;;;;;5030920;28;20018;-49
2023/08/10 02:43:40;;;;;;;4.70;1.73;;;13.50;99.90;;;;;;5030729;28;20482;-53
2023/08/10 02:46:06;;;;;;;4.53;1.85;;;13.50;99.90;;;;;;5012866;28;20080;-51
2023/08/10 02:48:32;;;;;;;3.13;1.45;;;13.50;99.90;;;;;;5030845;28;20086;-52
2023/08/10 02:50:57;;;;;;;6.03;2.08;;;13.40;99.90;;;;;;5030963;28;20033;-49
2023/08/10 02:53:23;;;;;;;3.70;1.80;;;13.40;99.90;;;;;;5030420;28;20075;-49
2023/08/10 02:55:48;;;;;;;7.28;1.77;;;13.40;99.90;;;;;;5030558;28;20473;-50
2023/08/10 02:58:14;;;;;;;7.07;1.88;;;13.40;99.90;;;;;;5013082;28;20029;-48
2023/08/10 03:00:41;;;;;;;4.63;1.77;;;13.40;99.90;;;;;;5030625;28;20025;-50
2023/08/10 03:03:07;;;;;;;5.15;1.80;;;13.30;99.90;;;;;;5030384;28;20167;-50
2023/08/10 03:05:33;;;;;;;4.57;1.80;;;13.30;99.90;;;;;;5012856;28;20025;-49
2023/08/10 03:07:58;;;;;;;5.53;1.60;;;13.40;99.90;;;;;;5012759;28;20046;-49
2023/08/10 03:10:24;;;;;;;4.93;1.80;;;13.40;99.90;;;;;;5030854;28;20029;-49
2023/08/10 03:12:50;;;;;;;3.78;1.73;;;13.40;99.90;;;;;;5012536;28;20029;-49
2023/08/10 03:15:16;;;;;;;6.72;1.90;;;13.40;99.90;;;;;;5012572;28;20033;-51
2023/08/10 03:17:42;;;;;;;4.85;2.15;;;13.40;99.90;;;;;;5012766;28;20107;-49
2023/08/10 03:20:13;;;;;;;5.65;1.80;;;13.40;99.90;;;;;;5012723;28;20049;-49
2023/08/10 03:22:40;;;;;;;4.93;1.70;;;13.30;99.90;;;;;;5013431;28;20037;-53
2023/08/10 03:25:06;;;;;;;3.88;2.10;;;13.30;99.90;;;;;;5016672;28;20459;-52
2023/08/10 03:27:32;;;;;;;5.28;1.75;;;13.30;99.90;;;;;;5034356;28;20136;-52
2023/08/10 03:29:58;;;;;;;4.57;1.90;;;13.20;99.90;;;;;;5016598;28;20517;-53
2023/08/10 03:32:24;;;;;;;5.55;1.83;;;13.20;99.90;;;;;;5016481;28;20465;-48
2023/08/10 03:34:49;;;;;;;4.05;1.80;;;13.20;99.90;;;;;;5016668;28;20029;-53
2023/08/10 03:37:16;;;;;;;4.38;1.70;;;13.20;99.90;;;;;;5016253;28;20061;-53
2023/08/10 03:39:41;;;;;;;4.20;2.25;;;13.20;99.90;;;;;;5016530;28;20068;-52
2023/08/10 03:42:07;;;;;;;6.57;2.25;;;13.20;99.90;;;;;;5017194;28;20033;-50
2023/08/10 03:44:32;;;;;;;7.53;2.10;;;13.30;99.90;;;;;;5016438;28;20025;-53
2023/08/10 03:46:58;;;;;;;3.67;1.58;;;13.40;99.90;;;;;;5016668;28;20486;-53
2023/08/10 03:49:24;;;;;;;4.93;1.73;;;13.40;99.90;;;;;;5034284;28;20030;-50
2023/08/10 03:51:50;;;;;;;3.92;1.80;;;13.30;99.90;;;;;;5016256;28;20087;-49
2023/08/10 03:54:17;;;;;;;4.32;1.90;;;13.30;99.90;;;;;;5016494;28;20040;-48
2023/08/10 03:56:43;;;;;;;4.93;2.00;;;13.30;99.90;;;;;;5016426;28;20037;-49
2023/08/10 03:59:09;;;;;;;7.38;1.75;;;13.30;99.90;;;;;;5016217;28;20037;-49
2023/08/10 04:01:35;;;;;;;3.97;1.80;;;13.20;99.90;;;;;;5016423;28;20029;-49
2023/08/10 04:04:00;;;;;;;6.57;1.95;;;13.20;99.90;;;;;;5033979;28;20382;-49
2023/08/10 04:06:26;;;;;;;5.10;1.77;;;13.20;99.90;;;;;;5016208;28;20040;-52
2023/08/10 04:08:53;;;;;;;6.05;2.15;;;13.20;99.90;;;;;;5033835;28;20044;-49
2023/08/10 04:11:19;;;;;;;4.00;1.80;;;13.20;99.90;;;;;;5016018;28;20041;-49
2023/08/10 04:13:46;;;;;;;6.55;2.63;;;13.30;99.90;;;;;;5015864;28;20033;-51
2023/08/10 04:16:12;;;;;;;4.30;1.92;;;13.40;99.90;;;;;;5033599;28;20037;-49
2023/08/10 04:18:38;;;;;;;3.97;1.70;;;13.40;99.90;;;;;;5033676;28;20059;-49
2023/08/10 04:21:03;;;;;;;4.75;2.28;;;13.30;99.90;;;;;;5017436;28;20084;-49
2023/08/10 04:23:30;;;;;;;5.03;1.98;;;13.30;99.90;;;;;;5033662;28;20454;-49
2023/08/10 04:25:56;;;;;;;3.75;1.80;;;13.30;99.90;;;;;;5033652;28;20064;-50
2023/08/10 04:28:22;;;;;;;4.35;1.98;;;13.20;99.90;;;;;;5033809;28;20037;-51
2023/08/10 04:30:48;;;;;;;5.38;2.00;;;13.30;99.90;;;;;;5033652;28;20025;-51
2023/08/10 04:33:14;;;;;;;4.03;1.83;;;13.20;99.90;;;;;;5033242;28;20043;-49
2023/08/10 04:35:39;;;;;;;6.18;1.98;;;13.30;99.90;;;;;;5033402;28;20037;-49
2023/08/10 04:38:05;;;;;;;6.50;2.08;;;13.30;99.90;;;;;;5033280;28;20029;-53
2023/08/10 04:40:31;;;;;;;7.25;2.10;;;13.30;99.90;;;;;;5015765;28;20029;-50
2023/08/10 04:42:58;;;;;;;4.00;2.03;;;13.30;99.90;;;;;;5032911;28;20048;-50
2023/08/10 04:45:24;;;;;;;5.03;1.80;;;13.30;99.90;;;;;;5033085;28;20361;-48
2023/08/10 04:47:50;;;;;;;5.07;2.20;;;13.30;99.90;;;;;;5033103;28;20030;-53
2023/08/10 04:50:16;;;;;;;3.83;1.75;;;13.30;99.90;;;;;;5033138;28;20674;-52
2023/08/10 04:52:42;;;;;;;5.75;2.15;;;13.40;99.90;;;;;;5032758;28;20032;-50
2023/08/10 04:55:09;;;;;;;5.55;1.95;;;13.40;99.90;;;;;;5032897;28;20025;-52
2023/08/10 04:57:36;;;;;;;12.55;2.40;;;13.50;99.90;;;;;;5032734;28;20030;-50
2023/08/10 05:00:09;;;;;;;4.95;2.17;;;13.50;99.90;;;;;;5032837;28;20037;-53
2023/08/10 05:02:34;;;;;;;7.28;2.08;;;13.50;99.90;;;;;;5014884;28;20042;-50
2023/08/10 05:05:00;;;;;;;5.00;2.10;;;13.70;99.90;;;;;;5032730;28;20014;-53
2023/08/10 05:07:27;;;;;;;4.13;1.85;;;13.80;99.90;;;;;;5014661;28;20482;-53
2023/08/10 05:09:53;;;;;;;3.92;1.65;;;13.80;99.90;;;;;;5032721;28;20109;-53
2023/08/10 05:12:18;;;;;;;9.18;2.15;;;13.90;99.90;;;;;;5032265;28;20545;-53
2023/08/10 05:14:44;;;;;;;6.82;2.40;;;14.00;99.90;;;;;;5032566;28;20486;-51
2023/08/10 05:17:10;;;;;;;7.10;2.15;;;14.00;99.90;;;;;;5032151;28;20030;-48
2023/08/10 05:19:36;;;;;;;5.25;2.38;;;14.00;99.90;;;;;;5032627;28;20116;-49
2023/08/10 05:22:02;;;;;;;5.47;2.58;;;14.00;99.90;;;;;;5032580;28;20034;-48
2023/08/10 05:24:27;;;;;;;4.03;2.15;;;14.10;99.90;;;;;;5032723;28;20022;-54
2023/08/10 05:26:53;;;;;;;7.40;2.72;;;14.10;99.90;;;;;;5014740;28;20033;-53
2023/08/10 05:29:19;;;;;;;6.47;2.10;;;14.10;99.90;;;;;;5032364;28;20065;-50
2023/08/10 05:31:44;;;;;;;6.30;2.65;;;14.10;99.90;;;;;;5031999;28;20034;-52
2023/08/10 05:34:10;;;;;;;7.43;2.58;;;14.10;99.90;;;;;;5032221;28;20033;-48
2023/08/10 05:36:35;;;;;;;7.95;3.00;;;14.10;99.90;;;;;;5031974;28;20033;-50
2023/08/10 05:39:01;;;;;;;5.53;2.92;;;14.20;99.90;;;;;;5032120;28;20017;-52
2023/08/10 05:41:28;;;;;;;11.13;3.03;;;14.20;99.90;;;;;;5031921;28;20494;-51
2023/08/10 05:43:54;;;;;;;6.93;3.00;;;14.30;99.90;;;;;;5031942;28;20025;-52
2023/08/10 05:46:20;;;;;;;6.65;2.70;;;14.30;99.90;;;;;;5031314;28;20083;-52
2023/08/10 05:48:45;;;;;;;5.97;2.78;;;14.40;99.90;;;;;;5032197;28;20498;-48
2023/08/10 05:51:11;;;;;;;6.05;2.55;;;14.40;99.90;;;;;;5031863;28;20033;-50
2023/08/10 05:53:37;;;;;;;4.38;2.38;;;14.50;99.90;;;;;;5031458;28;20025;-53
2023/08/10 05:56:03;;;;;;;5.72;2.58;;;14.60;99.90;;;;;;5031609;28;20041;-53
2023/08/10 05:58:29;;;;;;;4.20;2.47;;;14.60;99.90;;;;;;5032351;28;20037;-50
2023/08/10 06:00:56;;;;;;;7.93;2.85;;;14.70;99.90;;;;;;5031449;28;20083;-53
2023/08/10 06:03:21;;;;;;;5.75;2.42;;;14.70;99.90;;;;;;5031345;28;20029;-52
2023/08/10 06:05:47;;;;;;;7.20;2.65;;;14.80;99.90;;;;;;5031486;28;20308;-53
2023/08/10 06:08:14;;;;;;;4.80;2.55;;;14.80;99.90;;;;;;5031494;28;20043;-51
2023/08/10 06:10:39;;;;;;;5.97;3.00;;;14.90;99.90;;;;;;5031580;28;20071;-52
2023/08/10 06:13:06;;;;;;;4.43;2.63;;;14.90;99.90;;;;;;5031279;28;20069;-50
2023/08/10 06:15:32;;;;;;;7.00;2.63;;;14.90;99.90;;;;;;5031329;28;20045;-52
2023/08/10 06:17:58;;;;;;;5.93;2.25;;;14.90;99.90;;;;;;5031489;28;20033;-54
2023/08/10 06:20:26;;;;;;;5.60;2.50;;;14.90;99.90;;;;;;5031389;28;20031;-53
2023/08/10 06:22:53;;;;;;;7.07;2.55;;;14.90;99.90;;;;;;5031073;28;20061;-50
2023/08/10 06:25:19;;;;;;;6.57;3.00;;;14.90;99.90;;;;;;5031036;28;20061;-53
2023/08/10 06:27:47;;;;;;;6.50;2.70;;;15.00;99.90;;;;;;5031321;28;20084;-50
2023/08/10 06:30:16;;;;;;;11.57;3.40;;;15.00;99.90;;;;;;5031192;28;20036;-53
2023/08/10 06:32:42;;;;;;;;;;;15.00;99.90;;;;;;5031957;28;20107;-51
2023/08/10 06:35:09;;;;;;;8.55;2.63;;;15.10;99.90;;;;;;5031299;28;20369;-53
2023/08/10 06:37:35;;;;;;;8.63;3.53;;;15.20;99.90;;;;;;5030730;28;20052;-52
2023/08/10 06:40:06;;;;;;;7.88;3.05;;;15.20;99.90;;;;;;5030886;28;20025;-53
2023/08/10 06:42:33;;;;;;;8.50;3.10;;;15.30;99.90;;;;;;5030690;28;20032;-51
2023/08/10 06:45:02;;;;;;;6.75;2.85;;;15.40;99.90;;;;;;5013181;28;20070;-51
2023/08/10 06:47:28;;;;;;;8.07;3.63;;;15.40;99.90;;;;;;5013040;28;20080;-52
2023/08/10 06:49:53;;;;;;;10.50;3.30;;;15.50;99.90;;;;;;5030971;28;20074;-52
2023/08/10 06:52:19;;;;;;;7.50;3.08;;;15.50;99.90;;;;;;5030493;28;20509;-49
2023/08/10 06:54:45;;;;;;;8.18;3.10;;;15.60;99.90;;;;;;5030664;28;20041;-53
2023/08/10 06:57:10;;;;;;;13.95;6.40;;;15.70;99.90;;;;;;5029500;28;20037;-52
2023/08/10 06:59:36;;;;;;;19.15;7.72;;;15.80;99.90;;;;;;5030843;28;20108;-53
2023/08/10 07:02:01;;;;;;;8.10;4.13;;;15.90;99.90;;;;;;5030534;28;20036;-53
2023/08/10 07:04:27;;;;;;;11.40;4.70;;;16.10;99.90;;;;;;5012986;28;20037;-53
2023/08/10 07:06:54;;;;;;;11.85;5.55;;;16.10;99.90;;;;;;5030326;28;20091;-50
2023/08/10 07:09:19;;;;;;;7.82;3.55;;;16.20;99.90;;;;;;5030608;28;20037;-48
2023/08/10 07:11:45;;;;;;;10.73;3.80;;;16.20;99.90;;;;;;5030322;28;20112;-49
2023/08/10 07:14:10;;;;;;;6.40;2.85;;;16.30;99.90;;;;;;5030609;28;20386;-52
2023/08/10 07:16:36;;;;;;;8.82;3.30;;;16.40;99.90;;;;;;5030318;28;20084;-51
2023/08/10 07:19:02;;;;;;;8.43;2.95;;;16.50;99.90;;;;;;5030666;28;20055;-53
2023/08/10 07:21:27;;;;;;;11.80;4.15;;;16.60;99.90;;;;;;5030396;28;20033;-51
2023/08/10 07:23:53;;;;;;;7.88;2.88;;;16.60;99.90;;;;;;5030433;28;20508;-48
2023/08/10 07:26:19;;;;;;;8.60;3.45;;;16.60;99.90;;;;;;5030236;28;20032;-51
2023/08/10 07:28:45;;;;;;;6.57;3.03;;;16.60;99.90;;;;;;5030397;28;20030;-52
2023/08/10 07:31:11;;;;;;;6.55;2.30;;;16.60;99.90;;;;;;5030501;28;20021;-51
2023/08/10 07:33:37;;;;;;;6.10;2.40;;;16.80;99.90;;;;;;5030142;28;20541;-51
2023/08/10 07:36:03;;;;;;;7.38;2.60;;;16.80;99.90;;;;;;5030515;28;20069;-52
2023/08/10 07:38:29;;;;;;;6.28;2.50;;;16.80;99.90;;;;;;5030295;28;20034;-50
2023/08/10 07:40:54;;;;;;;5.32;2.17;;;16.90;99.90;;;;;;5030303;28;20033;-52
2023/08/10 07:43:20;;;;;;;6.78;3.13;;;16.90;99.90;;;;;;5030070;28;20029;-51
2023/08/10 07:45:46;;;;;;;7.43;2.45;;;17.00;99.90;;;;;;5030109;28;20069;-52
2023/08/10 07:48:11;;;;;;;8.65;2.80;;;17.10;99.90;;;;;;5030272;28;20034;-53
2023/08/10 07:50:37;;;;;;;5.95;2.38;;;17.10;99.90;;;;;;5012603;28;20030;-53
2023/08/10 07:53:03;;;;;;;5.82;2.47;;;17.20;99.90;;;;;;5029949;28;20444;-53
2023/08/10 07:55:29;;;;;;;7.53;2.88;;;17.30;99.90;;;;;;5029850;28;20513;-52
2023/08/10 07:57:54;;;;;;;7.32;2.42;;;17.40;99.90;;;;;;5031307;28;20064;-48
2023/08/10 08:00:20;;;;;;;7.30;2.58;;;17.40;99.90;;;;;;5030754;28;20447;-51
2023/08/10 08:02:49;;;;;;;6.45;2.25;;;17.50;99.90;;;;;;5030328;28;20043;-51
2023/08/10 08:05:16;;;;;;;6.82;2.60;;;17.70;99.90;;;;;;5030238;28;20040;-52
2023/08/10 08:07:42;;;;;;;6.68;2.53;;;17.70;99.90;;;;;;5030134;28;20351;-53
2023/08/10 08:10:08;;;;;;;6.55;1.73;;;17.90;99.90;;;;;;5033152;28;20033;-49
2023/08/10 08:12:34;;;;;;;4.13;1.50;;;17.90;99.90;;;;;;5033782;28;20037;-49
2023/08/10 08:15:01;;;;;;;3.47;1.48;;;17.90;99.90;;;;;;5034167;28;20053;-49
2023/08/10 08:17:27;;;;;;;4.65;1.63;;;18.00;99.90;;;;;;5034113;28;20467;-51
2023/08/10 08:19:56;;;;;;;5.85;1.65;;;18.10;99.90;;;;;;5034018;28;20061;-54
2023/08/10 08:22:22;;;;;;;5.55;1.60;;;18.10;99.90;;;;;;5033567;28;20056;-54
2023/08/10 08:24:51;;;;;;;9.88;2.78;;;18.40;99.90;;;;;;5034010;28;20025;-50
2023/08/10 08:27:18;;;;;;;8.82;2.00;;;18.40;99.90;;;;;;5033582;28;20102;-50
2023/08/10 08:29:43;;;;;;;3.33;1.58;;;18.50;99.90;;;;;;5033932;28;20037;-54
2023/08/10 08:32:09;;;;;;;5.85;1.40;;;18.60;99.90;;;;;;5033691;28;20052;-54
2023/08/10 08:34:35;;;;;;;3.00;1.42;;;18.70;99.90;;;;;;5033751;28;20029;-53
2023/08/10 08:37:01;;;;;;;4.10;1.67;;;18.70;99.90;;;;;;5033391;28;20033;-52
2023/08/10 08:39:26;;;;;;;4.55;1.52;;;18.80;99.90;;;;;;5015926;28;20545;-54
2023/08/10 08:41:54;;;;;;;6.20;1.70;;;18.90;99.90;;;;;;5033561;28;20116;-54
2023/08/10 08:44:20;;;;;;;5.55;1.55;;;18.90;99.90;;;;;;5016030;28;20393;-50
2023/08/10 08:46:48;;;;;;;3.83;1.50;;;19.00;99.90;;;;;;5033139;28;20124;-53
2023/08/10 08:49:15;;;;;;;5.47;1.10;;;19.00;99.90;;;;;;5033361;28;20100;-52
2023/08/10 08:51:41;;;;;;;4.22;1.58;;;19.00;99.90;;;;;;5032737;28;20041;-53
2023/08/10 08:54:07;;;;;;;5.00;1.60;;;18.90;99.90;;;;;;5015015;28;20030;-51
2023/08/10 08:56:32;;;;;;;7.82;1.67;;;18.90;99.90;;;;;;5032669;28;20027;-54
2023/08/10 08:58:58;;;;;;;4.22;1.70;;;19.00;99.90;;;;;;5033260;28;20486;-51
2023/08/10 09:01:25;;;;;;;4.18;1.73;;;19.00;99.90;;;;;;5032719;28;20110;-52
2023/08/10 09:03:50;;;;;;;4.78;2.22;;;19.10;99.90;;;;;;5015024;28;20037;-54
2023/08/10 09:06:16;;;;;;;5.45;1.83;;;19.10;99.90;;;;;;5032584;28;20033;-53
2023/08/10 09:08:42;;;;;;;5.50;1.83;;;19.10;99.90;;;;;;5032965;28;20593;-51
2023/08/10 09:11:08;;;;;;;14.65;6.65;;;19.10;99.90;;;;;;5032945;28;20029;-53
2023/08/10 09:13:34;;;;;;;7.28;2.60;;;19.00;99.90;;;;;;5032445;28;20042;-50
2023/08/10 09:16:13;;;;;;;8.30;2.20;;;19.20;99.90;;;;;;5032555;28;20029;-51
2023/08/10 09:18:42;;;;;;;8.10;2.95;;;19.20;99.90;;;;;;5032693;28;20042;-51
2023/08/10 09:21:19;;;;;;;4.97;1.90;;;19.30;99.90;;;;;;5031592;28;20486;-52
2023/08/10 09:23:47;;;;;;;6.20;2.17;;;19.20;99.90;;;;;;5032433;28;20466;-54
2023/08/10 09:26:16;;;;;;;6.90;2.72;;;19.10;99.90;;;;;;5032689;28;20076;-52
2023/08/10 09:28:42;;;;;;;8.48;2.83;;;19.20;99.90;;;;;;5032408;28;20037;-53
2023/08/10 09:31:09;;;;;;;12.73;4.88;;;19.20;99.90;;;;;;5032418;28;20573;-51
2023/08/10 09:33:36;;;;;;;11.25;3.90;;;19.30;99.90;;;;;;5032098;28;20097;-52
2023/08/10 09:36:04;;;;;;;12.73;4.07;;;19.50;99.90;;;;;;5032129;28;20543;-49
2023/08/10 09:38:29;;;;;;;9.52;3.28;;;19.50;99.90;;;;;;5032187;28;20116;-51
2023/08/10 09:41:12;;;;;;;12.77;3.78;;;19.50;99.90;;;;;;5032107;28;20184;-52
2023/08/10 09:43:39;;;;;;;10.35;3.92;;;19.50;99.90;;;;;;5031579;28;20038;-52
2023/08/10 09:46:06;;;;;;;10.52;4.30;;;19.60;99.90;;;;;;5031979;28;20052;-52
2023/08/10 09:48:36;;;;;;;12.55;4.35;;;19.60;99.90;;;;;;5032057;28;20500;-53
2023/08/10 09:51:06;;;;;;;14.27;5.00;;;19.70;99.90;;;;;;5031793;28;20545;-51
2023/08/10 09:53:33;;;;;;;11.63;3.92;;;19.90;99.90;;;;;;5031671;28;20033;-53
2023/08/10 09:55:59;;;;;;;13.43;4.63;;;20.20;99.90;;;;;;5031922;28;20029;-52
2023/08/10 09:58:25;;;;;;;10.18;3.50;;;20.40;99.90;;;;;;5032004;28;20026;-48
2023/08/10 10:00:51;;;;;;;12.23;4.22;;;20.60;99.90;;;;;;5031757;28;20032;-50
2023/08/10 10:03:17;;;;;;;12.90;3.35;;;20.80;99.90;;;;;;5031543;28;20046;-49
2023/08/10 10:05:43;;;;;;;9.55;3.47;;;20.70;99.90;;;;;;5031750;28;20034;-49
2023/08/10 10:08:11;;;;;;;12.90;4.05;;;20.60;99.90;;;;;;5031569;28;20041;-50
2023/08/10 10:10:38;;;;;;;11.90;5.22;;;20.60;99.90;;;;;;5031484;28;20091;-51
2023/08/10 10:13:12;;;;;;;13.55;5.07;;;20.60;99.90;;;;;;5031201;28;20036;-53
2023/08/10 10:15:45;;;;;;;13.93;3.97;;;20.80;99.90;;;;;;5031326;28;20492;-51
2023/08/10 10:18:11;;;;;;;13.57;4.80;;;20.60;99.90;;;;;;5013794;28;20482;-50
2023/08/10 10:20:43;;;;;;;12.63;4.53;;;20.70;99.90;;;;;;5031427;28;20049;-53
2023/08/10 10:23:19;;;;;;;14.73;4.60;;;20.70;99.90;;;;;;5030977;28;20026;-53
2023/08/10 10:26:00;;;;;;;21.50;7.43;;;20.90;99.90;;;;;;5031204;28;20442;-52
2023/08/10 10:28:29;;;;;;;13.95;4.57;;;21.20;99.90;;;;;;5031636;28;20034;-52
2023/08/10 10:30:56;;;;;;;15.20;5.25;;;21.10;99.90;;;;;;5031256;28;20371;-49
2023/08/10 10:33:24;;;;;;;25.27;10.65;;;21.10;99.90;;;;;;5030715;28;20029;-53
2023/08/10 10:36:20;;;;;;;15.10;4.90;;;21.40;99.90;;;;;;5030900;28;20550;-51
2023/08/10 10:38:47;;;;;;;14.52;4.80;;;21.60;99.90;;;;;;5014638;28;20463;-54
2023/08/10 10:41:15;;;;;;;22.63;8.38;;;21.60;99.90;;;;;;5031399;28;20397;-53
2023/08/10 10:43:40;;;;;;;22.63;8.57;;;21.60;99.90;;;;;;5031013;28;20120;-53
2023/08/10 10:46:06;;;;;;;41.55;13.65;;;21.40;99.90;;;;;;5030891;28;20112;-53
2023/08/10 10:48:34;;;;;;;50.83;16.67;;;21.60;99.90;;;;;;5031259;28;20494;-51
2023/08/10 10:51:03;;;;;;;28.35;9.70;;;21.60;99.90;;;;;;5030998;28;20029;-54
2023/08/10 10:53:30;;;;;;;28.95;9.68;;;21.70;99.90;;;;;;5030786;28;20041;-54
2023/08/10 10:55:56;;;;;;;30.35;9.95;;;21.70;99.90;;;;;;5030810;28;20025;-52
2023/08/10 10:58:22;;;;;;;22.92;8.80;;;21.80;99.90;;;;;;5030855;28;20033;-53
2023/08/10 11:00:48;;;;;;;23.35;9.93;;;21.90;99.90;;;;;;5031260;28;20029;-52
2023/08/10 11:03:14;;;;;;;26.10;8.93;;;22.20;99.90;;;;;;5030801;28;20037;-50
2023/08/10 11:05:40;;;;;;;27.35;9.30;;;22.30;99.90;;;;;;5030846;28;20025;-48
2023/08/10 11:08:06;;;;;;;30.05;8.57;;;22.50;99.90;;;;;;5030745;28;20037;-48
2023/08/10 11:10:36;;;;;;;22.45;9.13;;;22.20;99.70;;;;;;5030677;28;20037;-52
2023/08/10 11:13:09;;;;;;;29.70;10.07;;;22.10;99.90;;;;;;5030322;28;20557;-51
2023/08/10 11:15:38;;;;;;;26.27;8.63;;;22.10;99.90;;;;;;5013520;28;20494;-53
2023/08/10 11:18:11;;;;;;;26.38;10.05;;;22.10;99.90;;;;;;5030603;28;20037;-52
2023/08/10 11:20:48;;;;;;;17.95;6.85;;;22.10;99.90;;;;;;5030486;28;20035;-53
2023/08/10 11:23:14;;;;;;;22.60;7.20;;;22.00;99.50;;;;;;5030489;28;20034;-52
2023/08/10 11:25:49;;;;;;;22.70;8.45;;;21.90;99.90;;;;;;5030601;28;20423;-51
2023/08/10 11:28:17;;;;;;;26.02;8.52;;;22.10;99.80;;;;;;5030564;28;20036;-51
2023/08/10 11:30:43;;;;;;;32.88;9.90;;;22.20;99.60;;;;;;5030532;28;20499;-48
2023/08/10 11:33:09;;;;;;;26.05;9.40;;;22.20;99.90;;;;;;5030202;28;20119;-50
2023/08/10 11:35:34;;;;;;;30.08;9.02;;;22.10;99.90;;;;;;5030221;28;20057;-52
2023/08/10 11:38:00;;;;;;;30.98;9.23;;;21.90;99.90;;;;;;5030378;28;20113;-51
2023/08/10 11:40:26;;;;;;;25.38;9.07;;;21.80;99.90;;;;;;5030429;28;20025;-50
2023/08/10 11:43:12;;;;;;;21.60;8.05;;;21.70;99.90;;;;;;5030523;28;20067;-50
2023/08/10 11:45:39;;;;;;;23.25;7.80;;;21.50;99.90;;;;;;5034692;28;20433;-50
2023/08/10 11:48:12;;;;;;;23.40;8.20;;;21.70;99.90;;;;;;5034306;28;20033;-52
2023/08/10 11:50:39;;;;;;;24.52;8.20;;;21.80;99.90;;;;;;5034391;28;20041;-48
2023/08/10 11:53:14;;;;;;;23.65;8.18;;;22.00;99.90;;;;;;5033904;28;20034;-51
2023/08/10 11:55:46;;;;;;;28.27;9.52;;;22.20;99.90;;;;;;5034413;28;20476;-52
2023/08/10 11:58:13;;;;;;;22.35;8.38;;;22.30;99.60;;;;;;5034356;28;20466;-52
2023/08/10 12:00:41;;;;;;;17.25;7.13;;;22.40;99.50;;;;;;5034167;28;20439;-53
2023/08/10 12:03:26;;;;;;;20.25;7.47;;;22.50;99.10;;;;;;5033806;28;20482;-52
2023/08/10 12:05:56;;;;;;;21.85;7.65;;;22.50;99.60;;;;;;5016193;28;20482;-53
2023/08/10 12:08:30;;;;;;;17.35;6.93;;;22.80;99.90;;;;;;5033876;28;20044;-53
2023/08/10 12:11:05;;;;;;;21.15;7.10;;;22.80;99.90;;;;;;5016241;28;20106;-53
2023/08/10 12:13:31;;;;;;;19.20;7.32;;;22.80;99.60;;;;;;5033753;28;20124;-49
2023/08/10 12:15:59;;;;;;;17.00;6.85;;;22.90;99.20;;;;;;5033680;28;20041;-50
2023/08/10 12:18:25;;;;;;;18.08;6.20;;;22.90;99.10;;;;;;5033560;28;20041;-52
2023/08/10 12:20:53;;;;;;;11.25;5.45;;;23.00;99.90;;;;;;5033656;28;20482;-49
2023/08/10 12:23:19;;;;;;;15.00;5.13;;;22.90;99.80;;;;;;5033573;28;20429;-49
2023/08/10 12:25:47;;;;;;;14.63;5.55;;;22.80;99.90;;;;;;5033395;28;20432;-53
2023/08/10 12:28:15;;;;;;;12.82;4.88;;;22.80;99.60;;;;;;5033496;28;20052;-52
2023/08/10 12:30:42;;;;;;;16.60;6.78;;;22.60;99.90;;;;;;5033467;28;20045;-49
2023/08/10 12:33:10;;;;;;;19.08;6.78;;;22.50;99.90;;;;;;5033167;28;20099;-52
2023/08/10 12:35:36;;;;;;;17.02;6.32;;;22.40;99.90;;;;;;5033243;28;20037;-53
2023/08/10 12:38:03;;;;;;;10.35;5.20;;;22.30;99.90;;;;;;5015444;28;20029;-50
2023/08/10 12:40:30;;;;;;;13.57;5.03;;;22.30;99.90;;;;;;5033222;28;20037;-48
2023/08/10 12:42:55;;;;;;;13.57;5.20;;;22.20;99.90;;;;;;5033201;28;20075;-53